Time;durP1;ratioP1;P1;durP2;ratioP2;P2;SDS_P1;SDS_P2;PMS_P1;PMS_P2;Temp;Humidity;BMP_temperature;BMP_pressure;BME280_temperature;BME280_humidity;BME280_pressure;Samples;Min_cycle;Max_cycle;Signal;HPM_P1;HPM_P2
2022/03/27 00:01:28;;;;;;;16.60;11.88;;;;;;;;;;4982647;28;20042;-71
2022/03/27 00:03:54;;;;;;;15.52;10.95;;;;;;;;;;4981583;28;20049;-71
2022/03/27 00:06:20;;;;;;;16.30;11.63;;;;;;;;;;4987413;28;20107;-71
2022/03/27 00:08:46;;;;;;;18.23;12.23;;;;;;;;;;4982242;28;20069;-71
2022/03/27 00:11:24;;;;;;;16.55;12.10;;;;;;;;;;4982781;28;20073;-71
2022/03/27 00:13:59;;;;;;;17.95;12.05;;;;;;;;;;4979071;28;20093;-72
2022/03/27 00:16:25;;;;;;;18.92;12.52;;;;;;;;;;4978003;28;20046;-72
2022/03/27 00:18:52;;;;;;;18.92;13.00;;;;;;;;;;4978108;28;20030;-72
2022/03/27 00:21:20;;;;;;;20.27;13.10;;;;;;;;;;4971408;28;20046;-72
2022/03/27 00:23:47;;;;;;;19.45;12.88;;;;;;;;;;4965303;28;20566;-71
2022/03/27 00:26:14;;;;;;;20.48;12.65;;;;;;;;;;4984095;28;20536;-71
2022/03/27 00:28:40;;;;;;;19.10;12.90;;;;;;;;;;4996320;28;20052;-71
2022/03/27 00:31:07;;;;;;;16.77;12.10;;;;;;;;;;4981371;28;20100;-71
2022/03/27 00:33:34;;;;;;;16.77;11.27;;;;;;;;;;4982383;28;20045;-71
2022/03/27 00:36:01;;;;;;;17.38;11.88;;;;;;;;;;4983012;28;20034;-71
2022/03/27 00:38:27;;;;;;;17.92;11.85;;;;;;;;;;4983187;28;20048;-71
2022/03/27 00:40:54;;;;;;;19.48;12.73;;;;;;;;;;4987237;28;20073;-71
2022/03/27 00:43:20;;;;;;;19.77;12.50;;;;;;;;;;4983731;28;20034;-71
2022/03/27 00:45:47;;;;;;;18.05;12.13;;;;;;;;;;4984529;28;20050;-71
2022/03/27 00:48:14;;;;;;;17.63;12.07;;;;;;;;;;4982652;28;20050;-71
2022/03/27 00:50:41;;;;;;;20.35;12.90;;;;;;;;;;4978474;28;20045;-71
2022/03/27 00:53:07;;;;;;;15.85;11.95;;;;;;;;;;4982566;28;20030;-72
2022/03/27 00:55:33;;;;;;;16.73;12.65;;;;;;;;;;4981379;28;20049;-71
2022/03/27 00:57:59;;;;;;;20.13;14.20;;;;;;;;;;4997829;28;20050;-71
2022/03/27 01:00:41;;;;;;;29.10;18.15;;;;;;;;;;4997104;28;20046;-72
2022/03/27 01:03:14;;;;;;;30.05;19.67;;;;;;;;;;4980228;28;20522;-71
2022/03/27 01:05:45;;;;;;;29.73;19.10;;;;;;;;;;4967382;28;20041;-71
2022/03/27 01:08:12;;;;;;;28.15;18.70;;;;;;;;;;4972030;28;20394;-71
2022/03/27 01:10:38;;;;;;;25.02;17.45;;;;;;;;;;4978509;28;20057;-71
2022/03/27 01:13:08;;;;;;;22.33;15.73;;;;;;;;;;4978621;28;20054;-71
2022/03/27 01:15:39;;;;;;;22.15;16.17;;;;;;;;;;4984616;28;20045;-72
2022/03/27 01:18:06;;;;;;;22.77;15.20;;;;;;;;;;4982961;28;20057;-72
2022/03/27 01:20:33;;;;;;;19.85;15.35;;;;;;;;;;4984512;28;20129;-71
2022/03/27 01:22:59;;;;;;;19.08;13.93;;;;;;;;;;5001477;28;20045;-71
2022/03/27 01:25:26;;;;;;;21.70;13.95;;;;;;;;;;4986520;28;20046;-71
2022/03/27 01:27:52;;;;;;;18.05;13.68;;;;;;;;;;4981611;28;20046;-71
2022/03/27 01:30:18;;;;;;;19.15;14.10;;;;;;;;;;4985657;28;20056;-70
2022/03/27 01:32:44;;;;;;;21.13;15.10;;;;;;;;;;4983377;28;20046;-71
2022/03/27 01:35:10;;;;;;;18.17;13.82;;;;;;;;;;4981648;28;20125;-71
2022/03/27 01:37:36;;;;;;;17.45;13.50;;;;;;;;;;4981487;28;20038;-71
2022/03/27 01:40:04;;;;;;;18.60;12.68;;;;;;;;;;4963529;28;20043;-71
2022/03/27 01:42:30;;;;;;;20.40;13.63;;;;;;;;;;4981375;28;20046;-71
2022/03/27 01:44:56;;;;;;;19.02;12.57;;;;;;;;;;4978832;28;20041;-71
2022/03/27 01:47:22;;;;;;;19.60;12.68;;;;;;;;;;4980564;28;20079;-71
2022/03/27 01:49:48;;;;;;;16.80;12.55;;;;;;;;;;4967720;28;20069;-71
2022/03/27 01:52:15;;;;;;;17.95;12.55;;;;;;;;;;4995946;28;20049;-72
2022/03/27 01:54:41;;;;;;;16.92;12.50;;;;;;;;;;4984664;28;20054;-71
2022/03/27 01:57:07;;;;;;;18.63;11.82;;;;;;;;;;5003623;28;20116;-72
2022/03/27 01:59:35;;;;;;;16.00;12.00;;;;;;;;;;4999608;28;20041;-71
2022/03/27 02:02:01;;;;;;;15.95;12.60;;;;;;;;;;4985204;28;20175;-71
2022/03/27 02:04:27;;;;;;;15.70;12.73;;;;;;;;;;5001773;28;20116;-71
2022/03/27 02:06:53;;;;;;;18.02;12.63;;;;;;;;;;4985358;28;20042;-71
2022/03/27 02:09:19;;;;;;;16.45;12.02;;;;;;;;;;4987065;28;20219;-71
2022/03/27 02:11:45;;;;;;;15.85;12.25;;;;;;;;;;5001068;28;20214;-72
2022/03/27 02:14:11;;;;;;;18.00;12.68;;;;;;;;;;4999012;28;20057;-71
2022/03/27 02:16:38;;;;;;;15.63;12.43;;;;;;;;;;4981222;28;20045;-71
2022/03/27 02:19:09;;;;;;;15.13;11.73;;;;;;;;;;4982199;28;20030;-71
2022/03/27 02:21:36;;;;;;;18.60;12.98;;;;;;;;;;4987800;28;20042;-71
2022/03/27 02:24:05;;;;;;;16.15;12.20;;;;;;;;;;4960434;28;20127;-72
2022/03/27 02:26:31;;;;;;;14.27;11.80;;;;;;;;;;4961026;28;20046;-74
2022/03/27 02:28:57;;;;;;;19.70;13.35;;;;;;;;;;4982506;28;20048;-71
2022/03/27 02:31:24;;;;;;;16.58;12.73;;;;;;;;;;4992235;28;20053;-71
2022/03/27 02:33:50;;;;;;;18.27;12.95;;;;;;;;;;4989987;28;20038;-71
2022/03/27 02:36:16;;;;;;;19.23;13.52;;;;;;;;;;5004336;28;20058;-71
2022/03/27 02:38:43;;;;;;;17.75;13.98;;;;;;;;;;4990230;28;20038;-71
2022/03/27 02:41:09;;;;;;;19.55;14.93;;;;;;;;;;5001107;28;20072;-71
2022/03/27 02:43:38;;;;;;;21.08;14.60;;;;;;;;;;4990760;28;20046;-71
2022/03/27 02:46:07;;;;;;;21.60;14.57;;;;;;;;;;4989437;28;20069;-72
2022/03/27 02:48:34;;;;;;;19.27;14.48;;;;;;;;;;4991789;28;20494;-71
2022/03/27 02:51:00;;;;;;;20.50;15.13;;;;;;;;;;4985564;28;20069;-73
2022/03/27 02:53:26;;;;;;;21.15;14.85;;;;;;;;;;4988997;28;20057;-73
2022/03/27 02:55:52;;;;;;;20.92;15.45;;;;;;;;;;5004828;28;20030;-72
2022/03/27 02:58:18;;;;;;;22.20;15.95;;;;;;;;;;4974355;28;20137;-71
2022/03/27 03:00:45;;;;;;;20.88;16.30;;;;;;;;;;4958568;28;20038;-71
2022/03/27 03:03:12;;;;;;;23.13;16.75;;;;;;;;;;4983977;28;20046;-72
2022/03/27 03:05:41;;;;;;;28.15;17.20;;;;;;;;;;4973193;28;20042;-71
2022/03/27 03:08:11;;;;;;;21.83;16.88;;;;;;;;;;5003738;28;20088;-71
2022/03/27 03:10:40;;;;;;;21.65;16.38;;;;;;;;;;5002579;28;20056;-74
2022/03/27 03:13:08;;;;;;;19.70;15.45;;;;;;;;;;4971534;28;20045;-74
2022/03/27 03:15:34;;;;;;;19.83;15.52;;;;;;;;;;4990021;28;20042;-71
2022/03/27 03:18:00;;;;;;;18.45;15.32;;;;;;;;;;4970318;28;20045;-71
2022/03/27 03:20:27;;;;;;;20.95;15.00;;;;;;;;;;4988191;28;20042;-71
2022/03/27 03:22:53;;;;;;;19.50;14.32;;;;;;;;;;5002133;28;20045;-71
2022/03/27 03:25:19;;;;;;;21.25;14.98;;;;;;;;;;4967898;28;20042;-71
2022/03/27 03:27:45;;;;;;;21.77;15.45;;;;;;;;;;4987947;28;20116;-73
2022/03/27 03:30:12;;;;;;;17.70;14.07;;;;;;;;;;5000870;28;20049;-71
2022/03/27 03:32:39;;;;;;;19.02;13.68;;;;;;;;;;5002565;28;20494;-72
2022/03/27 03:35:05;;;;;;;23.92;13.88;;;;;;;;;;4987819;28;20497;-71
2022/03/27 03:37:31;;;;;;;16.95;13.57;;;;;;;;;;4989237;28;20126;-71
2022/03/27 03:39:57;;;;;;;17.30;13.52;;;;;;;;;;5000410;28;20409;-72
2022/03/27 03:42:24;;;;;;;20.13;13.18;;;;;;;;;;4989028;28;20100;-71
2022/03/27 03:44:50;;;;;;;18.60;13.82;;;;;;;;;;5000688;28;20421;-71
2022/03/27 03:47:16;;;;;;;20.88;12.63;;;;;;;;;;4986342;28;20049;-72
2022/03/27 03:49:42;;;;;;;21.15;12.98;;;;;;;;;;5002247;28;20105;-71
2022/03/27 03:52:08;;;;;;;24.65;13.73;;;;;;;;;;4988558;28;20041;-71
2022/03/27 03:54:35;;;;;;;21.77;13.35;;;;;;;;;;5005484;28;20397;-72
2022/03/27 03:57:03;;;;;;;20.55;13.23;;;;;;;;;;5001446;28;20398;-71
2022/03/27 03:59:29;;;;;;;21.13;12.88;;;;;;;;;;4983669;28;20034;-73
2022/03/27 04:01:55;;;;;;;23.30;13.18;;;;;;;;;;5001473;28;20041;-72
2022/03/27 04:04:21;;;;;;;26.42;13.48;;;;;;;;;;4984181;28;20042;-71
2022/03/27 04:06:47;;;;;;;23.77;13.73;;;;;;;;;;4972799;28;20066;-71
2022/03/27 04:09:13;;;;;;;26.20;13.77;;;;;;;;;;4987190;28;20402;-72
2022/03/27 04:11:40;;;;;;;23.42;13.50;;;;;;;;;;5001364;28;20076;-73
2022/03/27 04:14:06;;;;;;;24.95;13.73;;;;;;;;;;4971057;28;20077;-71
2022/03/27 04:16:32;;;;;;;29.85;14.95;;;;;;;;;;4987689;28;20088;-71
2022/03/27 04:18:58;;;;;;;24.83;14.75;;;;;;;;;;4984412;28;20058;-73
2022/03/27 04:21:24;;;;;;;30.00;15.30;;;;;;;;;;5000215;28;20579;-71
2022/03/27 04:23:50;;;;;;;29.40;14.77;;;;;;;;;;4975746;28;20046;-71
2022/03/27 04:26:16;;;;;;;26.80;15.10;;;;;;;;;;5003955;28;20095;-71
2022/03/27 04:28:42;;;;;;;28.27;14.48;;;;;;;;;;4999309;28;20057;-72
2022/03/27 04:31:09;;;;;;;25.90;14.13;;;;;;;;;;4999648;28;20038;-71
2022/03/27 04:33:35;;;;;;;23.15;14.27;;;;;;;;;;4987452;28;20043;-71
2022/03/27 04:36:03;;;;;;;31.33;14.75;;;;;;;;;;5003271;28;20037;-71
2022/03/27 04:38:29;;;;;;;25.40;13.55;;;;;;;;;;4966622;28;20045;-71
2022/03/27 04:40:55;;;;;;;26.95;13.98;;;;;;;;;;4998299;28;20042;-71
2022/03/27 04:43:22;;;;;;;27.38;13.77;;;;;;;;;;4969973;28;20052;-71
2022/03/27 04:45:49;;;;;;;29.10;13.55;;;;;;;;;;4987963;28;20039;-71
2022/03/27 04:48:15;;;;;;;36.03;13.73;;;;;;;;;;4987138;28;20120;-71
2022/03/27 04:50:41;;;;;;;27.52;13.40;;;;;;;;;;4997686;28;20044;-71
2022/03/27 04:53:07;;;;;;;30.02;14.10;;;;;;;;;;5000506;28;20087;-71
2022/03/27 04:55:34;;;;;;;28.65;13.15;;;;;;;;;;4982356;28;20034;-71
2022/03/27 04:58:00;;;;;;;28.58;13.02;;;;;;;;;;4984044;28;20046;-71
2022/03/27 05:00:26;;;;;;;28.48;13.85;;;;;;;;;;4997194;28;21325;-71
2022/03/27 05:02:52;;;;;;;29.13;13.27;;;;;;;;;;4953773;28;20034;-72
2022/03/27 05:05:19;;;;;;;29.65;13.10;;;;;;;;;;5001804;28;20092;-72
2022/03/27 05:07:45;;;;;;;29.52;12.57;;;;;;;;;;4982917;28;20053;-71
2022/03/27 05:10:12;;;;;;;32.10;13.38;;;;;;;;;;5003381;28;20037;-73
2022/03/27 05:12:38;;;;;;;30.60;13.52;;;;;;;;;;4996682;28;20053;-71
2022/03/27 05:15:05;;;;;;;29.02;13.05;;;;;;;;;;5000521;28;20054;-71
2022/03/27 05:17:31;;;;;;;32.63;13.05;;;;;;;;;;4997466;28;20034;-73
2022/03/27 05:19:57;;;;;;;25.52;11.85;;;;;;;;;;4970550;28;20044;-72
2022/03/27 05:22:23;;;;;;;32.80;12.30;;;;;;;;;;4953245;28;20042;-71
2022/03/27 05:24:49;;;;;;;35.47;12.55;;;;;;;;;;4987828;28;20057;-72
2022/03/27 05:27:18;;;;;;;27.90;12.13;;;;;;;;;;4999914;28;20045;-73
2022/03/27 05:29:44;;;;;;;34.90;12.70;;;;;;;;;;4984311;28;20081;-71
2022/03/27 05:32:11;;;;;;;35.33;13.18;;;;;;;;;;4985136;28;20038;-71
2022/03/27 05:34:37;;;;;;;40.05;14.00;;;;;;;;;;4983610;28;20038;-71
2022/03/27 05:37:03;;;;;;;36.50;13.50;;;;;;;;;;5002885;28;20048;-71
2022/03/27 05:39:29;;;;;;;34.35;12.23;;;;;;;;;;4986265;28;20046;-71
2022/03/27 05:41:55;;;;;;;34.00;12.65;;;;;;;;;;4998397;28;20058;-71
2022/03/27 05:44:21;;;;;;;36.00;12.48;;;;;;;;;;4981793;28;20034;-70
2022/03/27 05:46:47;;;;;;;31.30;12.43;;;;;;;;;;4983337;28;20054;-73
2022/03/27 05:49:13;;;;;;;40.97;13.30;;;;;;;;;;5001498;28;20048;-71
2022/03/27 05:51:39;;;;;;;40.10;13.25;;;;;;;;;;5001858;28;20045;-71
2022/03/27 05:54:05;;;;;;;39.47;13.05;;;;;;;;;;4989122;28;20077;-70
2022/03/27 05:56:31;;;;;;;41.17;13.20;;;;;;;;;;4970997;28;20109;-71
2022/03/27 05:58:57;;;;;;;37.35;12.18;;;;;;;;;;4973189;28;20046;-71
2022/03/27 06:01:23;;;;;;;39.03;12.18;;;;;;;;;;4975188;28;20056;-71
2022/03/27 06:03:49;;;;;;;38.13;12.20;;;;;;;;;;4996027;28;20057;-72
2022/03/27 06:06:16;;;;;;;41.28;12.63;;;;;;;;;;4988307;28;20038;-72
2022/03/27 06:08:42;;;;;;;40.95;13.18;;;;;;;;;;5001516;28;20133;-72
2022/03/27 06:11:08;;;;;;;41.95;11.82;;;;;;;;;;4983917;28;20038;-72
2022/03/27 06:13:34;;;;;;;48.60;12.23;;;;;;;;;;4983403;28;20030;-71
2022/03/27 06:16:00;;;;;;;40.90;12.05;;;;;;;;;;4972351;28;20406;-71
2022/03/27 06:18:26;;;;;;;51.83;11.80;;;;;;;;;;4971023;28;20046;-71
2022/03/27 06:20:53;;;;;;;45.05;11.68;;;;;;;;;;4998057;28;20064;-71
2022/03/27 06:23:19;;;;;;;50.03;12.88;;;;;;;;;;4981937;28;20038;-73
2022/03/27 06:25:45;;;;;;;47.00;12.43;;;;;;;;;;4977997;28;20027;-71
2022/03/27 06:28:11;;;;;;;45.40;12.18;;;;;;;;;;4981998;28;20129;-72
2022/03/27 06:30:37;;;;;;;49.30;12.20;;;;;;;;;;4987749;28;20410;-71
2022/03/27 06:33:04;;;;;;;56.38;13.88;;;;;;;;;;4984776;28;20046;-71
2022/03/27 06:35:30;;;;;;;48.28;12.70;;;;;;;;;;4982881;28;20121;-71
2022/03/27 06:37:57;;;;;;;64.00;14.93;;;;;;;;;;4983636;28;20046;-72
2022/03/27 06:40:23;;;;;;;57.30;13.43;;;;;;;;;;4984112;28;20037;-72
2022/03/27 06:42:50;;;;;;;37.10;11.98;;;;;;;;;;4984312;28;20088;-71
2022/03/27 06:45:16;;;;;;;46.30;12.00;;;;;;;;;;4985796;28;20426;-71
2022/03/27 06:47:44;;;;;;;53.00;11.07;;;;;;;;;;4983134;28;20569;-72
2022/03/27 06:50:11;;;;;;;51.78;11.15;;;;;;;;;;5000436;28;20560;-71
2022/03/27 06:52:37;;;;;;;50.80;11.90;;;;;;;;;;4979749;28;20175;-71
2022/03/27 06:55:05;;;;;;;49.40;13.15;;;;;;;;;;4980820;28;20048;-71
2022/03/27 06:57:32;;;;;;;50.50;13.82;;;;;;;;;;4985038;28;20161;-71
2022/03/27 07:05:28;;;;;;;43.90;12.32;;;;;;;;;;4984597;28;20509;-70
2022/03/27 07:10:23;;;;;;;49.28;13.60;;;;;;;;;;5057514;23;20052;-72
2022/03/27 07:12:49;;;;;;;43.92;12.73;;;;;;;;;;5007737;28;20091;-72
2022/03/27 07:15:16;;;;;;;44.42;12.48;;;;;;;;;;4995322;28;20041;-72
2022/03/27 07:17:46;;;;;;;48.33;12.77;;;;;;;;;;5014760;28;20065;-73
2022/03/27 07:20:13;;;;;;;49.33;13.48;;;;;;;;;;5011386;28;20038;-71
2022/03/27 07:22:40;;;;;;;42.22;13.13;;;;;;;;;;4994208;28;20460;-72
2022/03/27 07:25:07;;;;;;;46.22;13.32;;;;;;;;;;4994379;28;20049;-72
2022/03/27 07:27:34;;;;;;;45.00;13.02;;;;;;;;;;4991926;28;20133;-72
2022/03/27 07:30:00;;;;;;;54.60;13.93;;;;;;;;;;4989646;28;20386;-73
2022/03/27 07:32:26;;;;;;;39.72;12.48;;;;;;;;;;4993860;28;20085;-72
2022/03/27 07:34:52;;;;;;;37.60;12.35;;;;;;;;;;4994367;28;20054;-72
2022/03/27 07:37:19;;;;;;;48.65;13.27;;;;;;;;;;4978758;28;20033;-72
2022/03/27 07:39:45;;;;;;;53.55;12.98;;;;;;;;;;4996639;28;20140;-72
2022/03/27 07:42:13;;;;;;;48.00;13.40;;;;;;;;;;4975398;28;20038;-72
2022/03/27 07:44:39;;;;;;;47.65;13.48;;;;;;;;;;4994830;28;20045;-73
2022/03/27 07:47:06;;;;;;;40.25;12.10;;;;;;;;;;4992359;28;20046;-73
2022/03/27 07:49:32;;;;;;;43.33;11.98;;;;;;;;;;4994748;28;20073;-72
2022/03/27 07:52:00;;;;;;;48.90;12.52;;;;;;;;;;4987872;28;20061;-72
2022/03/27 07:54:27;;;;;;;46.30;13.15;;;;;;;;;;4984859;28;20045;-72
2022/03/27 07:56:53;;;;;;;45.83;13.05;;;;;;;;;;4973954;28;20060;-72
2022/03/27 07:59:19;;;;;;;41.75;11.65;;;;;;;;;;4987415;28;20034;-72
2022/03/27 08:01:45;;;;;;;41.03;11.90;;;;;;;;;;4987136;28;20050;-72
2022/03/27 08:04:11;;;;;;;43.78;11.88;;;;;;;;;;4988846;28;20119;-72
2022/03/27 08:06:37;;;;;;;48.03;11.50;;;;;;;;;;4974708;28;20038;-72
2022/03/27 08:09:04;;;;;;;39.58;10.85;;;;;;;;;;4988059;28;20410;-72
2022/03/27 08:11:31;;;;;;;49.10;10.95;;;;;;;;;;4986089;28;20076;-72
2022/03/27 08:13:57;;;;;;;37.35;9.60;;;;;;;;;;4985665;28;20030;-72
2022/03/27 08:16:23;;;;;;;42.58;11.07;;;;;;;;;;4987796;28;20064;-72
2022/03/27 08:18:49;;;;;;;35.55;9.65;;;;;;;;;;4988178;28;20120;-72
2022/03/27 08:21:15;;;;;;;40.70;9.65;;;;;;;;;;4990265;28;20056;-72
2022/03/27 08:23:41;;;;;;;33.78;10.40;;;;;;;;;;4988829;28;20057;-72
2022/03/27 08:28:52;;;;;;;41.33;10.90;;;;;;;;;;4986398;28;20042;-72
2022/03/27 08:31:18;;;;;;;42.17;11.70;;;;;;;;;;4990199;28;20042;-72
2022/03/27 08:33:46;;;;;;;41.25;12.07;;;;;;;;;;4982413;28;20044;-72
2022/03/27 08:36:12;;;;;;;41.05;11.75;;;;;;;;;;4987051;28;20092;-72
2022/03/27 08:38:39;;;;;;;41.58;11.63;;;;;;;;;;4971636;28;20040;-72
2022/03/27 08:41:05;;;;;;;40.50;11.02;;;;;;;;;;4980194;28;20038;-73
2022/03/27 08:43:32;;;;;;;46.22;13.00;;;;;;;;;;4987051;28;20057;-74
2022/03/27 08:45:59;;;;;;;41.72;11.05;;;;;;;;;;4986781;28;20042;-72
2022/03/27 08:48:26;;;;;;;41.92;11.55;;;;;;;;;;5003382;28;20103;-72
2022/03/27 08:51:21;;;;;;;37.63;11.77;;;;;;;;;;4984922;28;20034;-72
2022/03/27 08:53:51;;;;;;;43.88;11.40;;;;;;;;;;4968549;28;20043;-73
2022/03/27 08:56:18;;;;;;;41.17;11.75;;;;;;;;;;4986636;28;20034;-73
2022/03/27 08:58:45;;;;;;;40.25;11.07;;;;;;;;;;4970448;28;20049;-72
2022/03/27 09:01:11;;;;;;;39.75;10.35;;;;;;;;;;4983913;28;20045;-72
2022/03/27 09:03:38;;;;;;;40.78;11.57;;;;;;;;;;4986688;28;20062;-73
2022/03/27 09:06:08;;;;;;;42.05;11.43;;;;;;;;;;4984435;28;20048;-72
2022/03/27 09:08:34;;;;;;;36.72;11.38;;;;;;;;;;4984681;28;20034;-73
2022/03/27 09:11:06;;;;;;;42.30;12.27;;;;;;;;;;4985723;28;20041;-74
2022/03/27 09:13:33;;;;;;;41.42;11.40;;;;;;;;;;4981963;28;20088;-72
2022/03/27 09:16:01;;;;;;;39.17;11.15;;;;;;;;;;4984854;28;20052;-72
2022/03/27 09:18:40;;;;;;;40.88;11.45;;;;;;;;;;4987306;28;20034;-72
2022/03/27 09:21:06;;;;;;;42.60;11.20;;;;;;;;;;4970174;28;20069;-74
2022/03/27 09:23:34;;;;;;;37.17;11.32;;;;;;;;;;4985550;28;20125;-73
2022/03/27 09:26:04;;;;;;;39.47;10.05;;;;;;;;;;4991336;28;20045;-72
2022/03/27 09:28:30;;;;;;;40.78;10.70;;;;;;;;;;4991972;28;20045;-72
2022/03/27 09:30:58;;;;;;;41.35;10.52;;;;;;;;;;4988805;28;20037;-72
2022/03/27 09:33:31;;;;;;;31.50;8.43;;;;;;;;;;4985802;28;20069;-72
2022/03/27 09:36:04;;;;;;;42.42;9.65;;;;;;;;;;4986312;28;20045;-72
2022/03/27 09:38:30;;;;;;;41.47;9.32;;;;;;;;;;4985504;28;20042;-72
2022/03/27 09:40:56;;;;;;;43.75;9.65;;;;;;;;;;4985158;28;20068;-72
2022/03/27 09:43:22;;;;;;;39.50;8.55;;;;;;;;;;4986072;28;20029;-76
2022/03/27 09:45:55;;;;;;;37.40;9.15;;;;;;;;;;4989905;28;20041;-76
2022/03/27 10:13:47;;;;;;;32.30;7.82;;;;;;;;;;4750904;30;20204;-76
2022/03/27 10:16:14;;;;;;;35.22;8.88;;;;;;;;;;4790721;29;20056;-72
2022/03/27 10:18:41;;;;;;;36.47;7.93;;;;;;;;;;4939244;28;20057;-73
2022/03/27 10:21:07;;;;;;;29.17;7.55;;;;;;;;;;4969906;28;20069;-73
2022/03/27 10:23:34;;;;;;;36.50;8.05;;;;;;;;;;4971513;28;20042;-72
2022/03/27 10:26:03;;;;;;;34.17;8.40;;;;;;;;;;4970067;28;20050;-73
2022/03/27 10:28:29;;;;;;;33.95;7.85;;;;;;;;;;4971567;28;20061;-73
2022/03/27 10:30:56;;;;;;;31.52;7.57;;;;;;;;;;4969124;28;20070;-73
2022/03/27 10:33:26;;;;;;;39.10;8.35;;;;;;;;;;4972004;28;20046;-73
2022/03/27 10:36:16;;;;;;;32.15;7.70;;;;;;;;;;4971896;28;20046;-74
2022/03/27 10:38:51;;;;;;;30.05;7.40;;;;;;;;;;4965836;28;20062;-73
2022/03/27 10:41:20;;;;;;;31.02;7.80;;;;;;;;;;4967192;28;20118;-73
2022/03/27 10:44:06;;;;;;;35.35;7.88;;;;;;;;;;4970181;28;20038;-73
2022/03/27 10:46:32;;;;;;;35.80;7.22;;;;;;;;;;4971219;28;20038;-73
2022/03/27 10:49:14;;;;;;;31.60;7.32;;;;;;;;;;4971782;28;20045;-73
2022/03/27 10:51:40;;;;;;;;;;;;;;;;;;4970991;28;20065;-73
2022/03/27 10:54:27;;;;;;;28.70;7.22;;;;;;;;;;4968661;28;19921;-73
2022/03/27 10:56:54;;;;;;;31.88;6.75;;;;;;;;;;4968343;28;20050;-73
2022/03/27 10:59:25;;;;;;;25.83;6.70;;;;;;;;;;4965127;28;20043;-75
2022/03/27 11:01:53;;;;;;;30.17;6.95;;;;;;;;;;4963751;28;20068;-76
2022/03/27 11:04:21;;;;;;;29.98;6.65;;;;;;;;;;4986447;28;20118;-74
2022/03/27 11:06:50;;;;;;;27.73;6.95;;;;;;;;;;4963975;28;20047;-74
2022/03/27 11:09:38;;;;;;;29.15;6.93;;;;;;;;;;4972359;28;20054;-74
2022/03/27 11:12:05;;;;;;;25.23;6.03;;;;;;;;;;4952173;28;20045;-74
2022/03/27 11:14:51;;;;;;;29.58;6.75;;;;;;;;;;4968485;28;20125;-74
2022/03/27 11:17:18;;;;;;;28.90;7.60;;;;;;;;;;4967402;28;20097;-74
2022/03/27 11:19:45;;;;;;;30.80;7.32;;;;;;;;;;4967622;28;20093;-73
2022/03/27 11:22:30;;;;;;;24.58;6.05;;;;;;;;;;4970315;28;20042;-74
2022/03/27 11:25:15;;;;;;;28.02;6.05;;;;;;;;;;4961479;28;20048;-74
2022/03/27 11:28:00;;;;;;;30.05;6.97;;;;;;;;;;4989778;28;20048;-73
2022/03/27 11:30:26;;;;;;;28.88;6.63;;;;;;;;;;4952650;28;20096;-74
2022/03/27 11:33:11;;;;;;;24.98;6.13;;;;;;;;;;4967686;28;20562;-74
2022/03/27 11:35:38;;;;;;;24.50;7.13;;;;;;;;;;4969448;28;20057;-74
2022/03/27 11:38:27;;;;;;;25.65;6.65;;;;;;;;;;4965844;28;20034;-74
2022/03/27 11:40:55;;;;;;;22.73;5.65;;;;;;;;;;4970215;28;20042;-74
2022/03/27 11:43:36;;;;;;;21.80;6.20;;;;;;;;;;4954686;28;20088;-74
2022/03/27 11:46:03;;;;;;;30.65;7.35;;;;;;;;;;4969758;28;20065;-74
2022/03/27 11:48:29;;;;;;;26.05;6.15;;;;;;;;;;4968253;28;20084;-74
2022/03/27 11:50:55;;;;;;;22.88;6.13;;;;;;;;;;4968740;28;20057;-74
2022/03/27 11:53:32;;;;;;;23.27;6.15;;;;;;;;;;4951857;28;20062;-74
2022/03/27 11:56:06;;;;;;;24.60;6.50;;;;;;;;;;4952920;28;20034;-74
2022/03/27 11:58:33;;;;;;;25.48;6.68;;;;;;;;;;4968831;28;20577;-74
2022/03/27 12:01:04;;;;;;;24.30;6.57;;;;;;;;;;4965538;28;20036;-74
2022/03/27 12:03:30;;;;;;;27.75;7.35;;;;;;;;;;4967807;28;20043;-74
2022/03/27 12:06:03;;;;;;;21.42;5.80;;;;;;;;;;4991946;28;20042;-74
2022/03/27 12:08:37;;;;;;;24.27;6.38;;;;;;;;;;4964504;28;20043;-73
2022/03/27 12:11:06;;;;;;;22.45;6.45;;;;;;;;;;4968123;28;20461;-74
2022/03/27 12:13:39;;;;;;;22.17;6.25;;;;;;;;;;4968386;28;20573;-74
2022/03/27 12:16:06;;;;;;;19.67;5.72;;;;;;;;;;4967756;28;20105;-74
2022/03/27 12:18:33;;;;;;;20.67;6.07;;;;;;;;;;4967000;28;20034;-74
2022/03/27 12:21:01;;;;;;;23.80;6.10;;;;;;;;;;4968910;28;20038;-74
2022/03/27 12:23:31;;;;;;;20.60;5.80;;;;;;;;;;4967285;28;20031;-74
2022/03/27 12:25:58;;;;;;;20.60;6.18;;;;;;;;;;4969609;28;20089;-73
2022/03/27 12:31:23;;;;;;;23.30;6.13;;;;;;;;;;4968732;28;20038;-74
2022/03/27 12:33:49;;;;;;;21.13;5.80;;;;;;;;;;4954641;28;20038;-74
2022/03/27 12:36:16;;;;;;;17.75;5.25;;;;;;;;;;4968323;28;20122;-74
2022/03/27 12:38:42;;;;;;;17.00;5.55;;;;;;;;;;4967368;28;20034;-74
2022/03/27 12:41:10;;;;;;;20.48;5.30;;;;;;;;;;4968518;28;20047;-74
2022/03/27 12:43:37;;;;;;;22.45;6.07;;;;;;;;;;4967773;28;20042;-74
2022/03/27 12:46:20;;;;;;;39.15;5.93;;;;;;;;;;4966909;28;20117;-74
2022/03/27 12:49:10;;;;;;;21.23;6.13;;;;;;;;;;4952862;28;20134;-74
2022/03/27 12:51:36;;;;;;;20.95;5.70;;;;;;;;;;4968346;28;20045;-74
2022/03/27 12:54:03;;;;;;;19.17;5.72;;;;;;;;;;4970335;28;20046;-74
2022/03/27 12:56:30;;;;;;;21.15;5.88;;;;;;;;;;4975846;28;20038;-74
2022/03/27 12:58:56;;;;;;;19.00;6.38;;;;;;;;;;4953429;28;20060;-74
2022/03/27 13:01:23;;;;;;;20.05;5.50;;;;;;;;;;4967471;28;20042;-74
2022/03/27 13:04:00;;;;;;;19.27;5.00;;;;;;;;;;4969255;28;20394;-74
2022/03/27 13:06:35;;;;;;;17.75;5.07;;;;;;;;;;4969161;28;20059;-74
2022/03/27 13:09:03;;;;;;;19.27;5.50;;;;;;;;;;4968901;28;20145;-74
2022/03/27 13:11:29;;;;;;;18.92;5.35;;;;;;;;;;4967842;28;20042;-74
2022/03/27 13:14:02;;;;;;;22.30;5.80;;;;;;;;;;4967588;28;20121;-74
2022/03/27 13:16:33;;;;;;;18.65;5.15;;;;;;;;;;4950187;28;20039;-74
2022/03/27 13:19:10;;;;;;;19.75;5.00;;;;;;;;;;4946543;28;20170;-74
2022/03/27 13:21:44;;;;;;;16.45;4.85;;;;;;;;;;4952654;28;20047;-74
2022/03/27 13:24:12;;;;;;;18.27;5.07;;;;;;;;;;4964186;28;20173;-74
2022/03/27 13:26:39;;;;;;;18.50;5.20;;;;;;;;;;4948080;28;20043;-74
2022/03/27 13:29:06;;;;;;;12.90;4.18;;;;;;;;;;4951467;28;20042;-74
2022/03/27 13:31:35;;;;;;;18.80;5.15;;;;;;;;;;4947986;28;20522;-74
2022/03/27 13:34:05;;;;;;;19.00;5.20;;;;;;;;;;4929186;28;20043;-75
2022/03/27 13:36:33;;;;;;;17.73;4.80;;;;;;;;;;4949426;28;20120;-74
2022/03/27 13:38:59;;;;;;;15.35;4.82;;;;;;;;;;4951569;28;20051;-75
2022/03/27 13:44:13;;;;;;;17.85;4.50;;;;;;;;;;4953878;28;20069;-76
2022/03/27 13:46:40;;;;;;;15.30;4.60;;;;;;;;;;4950573;28;20066;-76
2022/03/27 13:49:06;;;;;;;18.63;4.72;;;;;;;;;;4954809;28;20043;-76
2022/03/27 13:51:32;;;;;;;541.78;33.40;;;;;;;;;;4951685;28;20077;-76
2022/03/27 13:53:58;;;;;;;68.13;6.53;;;;;;;;;;4953757;28;20517;-76
2022/03/27 13:56:25;;;;;;;25.38;4.55;;;;;;;;;;4935700;28;20514;-76
2022/03/27 13:58:51;;;;;;;42.63;5.35;;;;;;;;;;4972589;28;20034;-76
2022/03/27 14:01:17;;;;;;;22.23;4.70;;;;;;;;;;4956947;28;20047;-76
2022/03/27 14:03:44;;;;;;;15.38;4.13;;;;;;;;;;4948179;28;20054;-75
2022/03/27 14:06:11;;;;;;;12.77;4.30;;;;;;;;;;4953339;28;20038;-76
2022/03/27 14:08:38;;;;;;;15.30;3.72;;;;;;;;;;4951073;28;20046;-77
2022/03/27 14:11:04;;;;;;;15.43;4.32;;;;;;;;;;4951204;28;20039;-78
2022/03/27 14:13:31;;;;;;;11.88;3.60;;;;;;;;;;4950961;28;20043;-78
2022/03/27 14:15:57;;;;;;;13.85;4.28;;;;;;;;;;4946247;28;20118;-78
2022/03/27 14:18:23;;;;;;;11.45;3.97;;;;;;;;;;4967053;28;20499;-78
2022/03/27 14:20:50;;;;;;;13.20;3.83;;;;;;;;;;4952226;28;20035;-77
2022/03/27 14:23:16;;;;;;;13.43;3.78;;;;;;;;;;4971152;28;20043;-78
2022/03/27 14:25:43;;;;;;;13.40;4.20;;;;;;;;;;4965271;28;20528;-78
2022/03/27 14:28:10;;;;;;;17.15;4.03;;;;;;;;;;4968645;28;20043;-77
2022/03/27 14:30:37;;;;;;;15.07;4.38;;;;;;;;;;4969528;28;20137;-78
2022/03/27 14:33:04;;;;;;;10.45;3.95;;;;;;;;;;4968624;28;20105;-78
2022/03/27 14:35:30;;;;;;;13.00;3.80;;;;;;;;;;4964159;28;20045;-78
2022/03/27 14:37:56;;;;;;;14.65;3.90;;;;;;;;;;4950645;28;20457;-78
2022/03/27 14:40:22;;;;;;;14.75;4.55;;;;;;;;;;4967164;28;20125;-78
2022/03/27 14:42:48;;;;;;;13.13;4.05;;;;;;;;;;4967609;28;20051;-78
2022/03/27 14:45:14;;;;;;;14.90;4.22;;;;;;;;;;4967834;28;20117;-78
2022/03/27 14:47:41;;;;;;;14.30;3.97;;;;;;;;;;4968851;28;20123;-78
2022/03/27 14:50:14;;;;;;;15.18;4.22;;;;;;;;;;4969377;28;20038;-78
2022/03/27 14:52:42;;;;;;;14.63;4.28;;;;;;;;;;4969001;28;20497;-78
2022/03/27 14:57:58;;;;;;;15.85;4.53;;;;;;;;;;4967914;28;20043;-79
2022/03/27 15:00:24;;;;;;;14.82;4.68;;;;;;;;;;4967941;28;20057;-78
2022/03/27 15:02:50;;;;;;;19.38;5.07;;;;;;;;;;4969825;28;20681;-78
2022/03/27 15:05:16;;;;;;;16.08;4.45;;;;;;;;;;4968716;28;20447;-78
2022/03/27 15:07:43;;;;;;;13.98;4.20;;;;;;;;;;4934737;28;20516;-78
2022/03/27 15:10:12;;;;;;;13.52;4.25;;;;;;;;;;4968167;28;20089;-78